Aérodrome :
LOGIN :

S'inscrire | Disclaimer

   EN    FR    IT 

 










Légende :    VFR   VFR Marginal   IFR   IFR Intensif   IFR Très Intensif
Visi : 
Plafond : 
>= 8 km
>= 3000ft
5 à 8 km
1000 à 3000 ft
1500m à 5 km
500 à 1000 ft
800 à 1500m
200 à 500 ft
< 800m
< 200 ft
Symboles :   Orages  Brouillard  Fortes neiges  Fortes précipitations  Vent > 20 kt
SIGMETs :   Divers  Orages  Givrage  Turbulence  Onde Orograph.  Cendres Volcan.






- Altitude de l'aérodrome : 204 ft
- Code IATA : KSU


ENKB - Kristiansund , Kvernberget

DERNIER METAR :
  • 170020Z AUTO 17004KT 140V200 9999 NCD 04/M04 Q0963 RMK WIND 745FT 20016KT

METARs EXPIRÉS :
  • 162350Z AUTO 20004KT 160V250 9999 NCD 04/M03 Q0964 RMK WIND 745FT 20014KT
  • 162320Z AUTO 17004KT 100V240 9999 NCD 04/M03 Q0964 RMK WIND 745FT 18014KT
  • 162250Z VRB03KT CAVOK 05/M03 Q0964 RMK WIND 745FT 20014KT
  • 162220Z 19003KT 140V250 CAVOK 05/M03 Q0964 RMK WIND 745FT 19011KT
  • 162150Z 18005KT 130V230 CAVOK 05/M03 Q0964 RMK WIND 745FT 19010KT

Prévision TAF périmée.



MET'MAP, la Météo Aéronautique d'un coup d'oeil ! - Copyright ORBIFLY Décembre 2007 - Disclaimer

ORBIFLY MET'MAP TEAM :

Programmation & Développement : Alexandra Zaïnal
Sur une idée originale de : Baudouin d'Aumeries
Assistance à la programmation : Marc-Olivier Méhu
Soutien technique & logistique : Manuel Goepfert

Contact : metmap@orbifly.com




SOURCES & CREDITS :

   NOAA